Aviation Digital Data Service (ADDS)

Output produced by TAFs form (0123 UTC 23 July 2017)
found at http://www.aviationweather.gov/adds/tafs/
 
METAR text: RJFS 230100Z 17006KT 9999 FEW015 SCT/// 30/27 Q1008
Conditions at: RJFS (SAGA AIRPORT , JP) observed 0100 UTC 23 July 2017
Temperature: 30.0°C (86°F)
Dewpoint: 27.0°C (81°F) [RH = 84%]
Pressure (altimeter): 29.76 inches Hg (1008.0 mb)
Winds: from the S (170 degrees) at 7 MPH (6 knots; 3.1 m/s)
Visibility: 6 or more miles (10+ km)
Ceiling: at least 12,000 feet AGL
Clouds: few clouds at 1500 feet AGL
Weather: no significant weather observed at this time

Forecast for: RJFS (SAGA AIRPORT , JP)
Text: TAF RJFS 222306Z 2300/2406 17011KT 9999 FEW025
Forecast period: 0000 UTC 23 July 2017 to 0600 UTC 24 July 2017
Forecast type: FROM: standard forecast or significant change
Winds: from the S (170 degrees) at 13 MPH (11 knots; 5.7 m/s)
Visibility: 6 or more miles (10+ km)
Clouds: few clouds at 2500 feet AGL
Weather: no significant weather forecast for this period